Time;durP1;ratioP1;P1;durP2;ratioP2;P2;SDS_P1;SDS_P2;PMS_P1;PMS_P2;Temp;Humidity;BMP_temperature;BMP_pressure;BME280_temperature;BME280_humidity;BME280_pressure;Samples;Min_cycle;Max_cycle;Signal;HPM_P1;HPM_P2
2024/02/03 00:00:19;;;;;;;2.17;1.67;;;;;;;;;;5015347;28;20432;-78
2024/02/03 00:02:44;;;;;;;2.72;1.60;;;;;;;;;;5014584;28;20087;-77
2024/02/03 00:05:11;;;;;;;3.00;1.75;;;;;;;;;;5031970;28;20033;-77
2024/02/03 00:07:42;;;;;;;2.85;1.80;;;;;;;;;;5035641;28;20193;-77
2024/02/03 00:10:08;;;;;;;3.17;1.92;;;;;;;;;;5034567;28;20099;-77
2024/02/03 00:12:33;;;;;;;2.55;1.70;;;;;;;;;;5032578;28;20033;-77
2024/02/03 00:14:59;;;;;;;2.22;1.80;;;;;;;;;;5033979;28;20038;-77
2024/02/03 00:17:24;;;;;;;2.55;1.80;;;;;;;;;;5049286;28;20030;-78
2024/02/03 00:19:52;;;;;;;2.33;1.52;;;;;;;;;;5035937;28;20032;-78
2024/02/03 00:22:17;;;;;;;2.63;1.60;;;;;;;;;;5039453;28;20033;-77
2024/02/03 00:24:42;;;;;;;2.33;1.50;;;;;;;;;;5019986;28;20041;-78
2024/02/03 00:27:08;;;;;;;2.83;1.80;;;;;;;;;;5054846;28;20041;-79
2024/02/03 00:29:34;;;;;;;2.13;1.58;;;;;;;;;;5042984;28;20093;-78
2024/02/03 00:31:59;;;;;;;2.38;1.58;;;;;;;;;;5050584;28;20037;-78
2024/02/03 00:34:24;;;;;;;2.80;1.90;;;;;;;;;;5013877;28;20034;-77
2024/02/03 00:36:50;;;;;;;2.78;1.83;;;;;;;;;;5028175;28;20053;-77
2024/02/03 00:39:16;;;;;;;2.53;1.50;;;;;;;;;;5005755;28;20053;-76
2024/02/03 00:41:41;;;;;;;2.22;1.50;;;;;;;;;;5024439;28;20120;-77
2024/02/03 00:44:06;;;;;;;2.67;1.58;;;;;;;;;;5031052;28;20182;-76
2024/02/03 00:46:32;;;;;;;2.38;1.55;;;;;;;;;;5013040;28;20041;-77
2024/02/03 00:48:57;;;;;;;2.40;1.63;;;;;;;;;;5014257;28;20041;-77
2024/02/03 00:51:22;;;;;;;2.83;1.60;;;;;;;;;;5030659;28;20029;-75
2024/02/03 00:53:49;;;;;;;2.55;1.88;;;;;;;;;;5021254;28;20038;-77
2024/02/03 00:56:14;;;;;;;2.50;1.73;;;;;;;;;;5028958;28;20034;-78
2024/02/03 00:58:39;;;;;;;2.38;1.60;;;;;;;;;;5026767;28;20032;-77
2024/02/03 01:01:05;;;;;;;2.70;1.63;;;;;;;;;;5012646;28;20079;-77
2024/02/03 01:03:30;;;;;;;1.70;1.30;;;;;;;;;;5013186;28;20036;-77
2024/02/03 01:05:55;;;;;;;2.03;1.55;;;;;;;;;;5013393;28;20033;-77
2024/02/03 01:08:21;;;;;;;2.40;1.65;;;;;;;;;;5030892;28;20022;-77
2024/02/03 01:10:46;;;;;;;2.55;1.60;;;;;;;;;;5013093;28;20079;-76
2024/02/03 01:13:12;;;;;;;2.15;1.45;;;;;;;;;;5026700;28;20037;-77
2024/02/03 01:15:41;;;;;;;2.33;1.38;;;;;;;;;;5021233;28;20045;-77
2024/02/03 01:18:07;;;;;;;2.53;1.60;;;;;;;;;;5030302;28;20512;-76
2024/02/03 01:20:32;;;;;;;2.40;1.50;;;;;;;;;;5031493;28;20021;-77
2024/02/03 01:22:58;;;;;;;2.15;1.60;;;;;;;;;;5031686;28;20040;-77
2024/02/03 01:25:23;;;;;;;2.78;1.92;;;;;;;;;;5034919;28;20045;-77
2024/02/03 01:27:48;;;;;;;1.95;1.48;;;;;;;;;;5030096;28;20033;-76
2024/02/03 01:30:14;;;;;;;2.30;1.55;;;;;;;;;;5011048;28;20045;-77
2024/02/03 01:32:39;;;;;;;2.05;1.52;;;;;;;;;;5027584;28;20010;-76
2024/02/03 01:35:04;;;;;;;2.65;1.88;;;;;;;;;;5025923;28;20033;-76
2024/02/03 01:37:30;;;;;;;2.72;1.60;;;;;;;;;;5030932;28;20083;-77
2024/02/03 01:39:55;;;;;;;2.38;1.50;;;;;;;;;;5031076;28;20540;-77
2024/02/03 01:42:21;;;;;;;2.60;1.60;;;;;;;;;;5028161;28;20051;-78
2024/02/03 01:44:46;;;;;;;1.73;1.23;;;;;;;;;;4992835;28;20100;-77
2024/02/03 01:47:11;;;;;;;1.83;1.20;;;;;;;;;;5005982;28;20032;-75
2024/02/03 01:49:37;;;;;;;2.08;1.50;;;;;;;;;;5007773;28;20013;-77
2024/02/03 01:52:02;;;;;;;2.45;1.50;;;;;;;;;;5011847;28;20063;-77
2024/02/03 01:54:28;;;;;;;2.45;1.48;;;;;;;;;;5012547;28;20091;-76
2024/02/03 01:56:55;;;;;;;1.65;1.27;;;;;;;;;;5026025;28;20029;-77
2024/02/03 01:59:21;;;;;;;2.00;1.40;;;;;;;;;;5004248;28;20029;-77
2024/02/03 02:01:46;;;;;;;2.15;1.35;;;;;;;;;;5011316;28;20026;-77
2024/02/03 02:04:12;;;;;;;2.30;1.60;;;;;;;;;;5011157;28;20021;-77
2024/02/03 02:06:37;;;;;;;2.30;1.48;;;;;;;;;;5030123;28;20071;-78
2024/02/03 02:09:02;;;;;;;2.53;1.60;;;;;;;;;;4998821;28;20107;-77
2024/02/03 02:11:30;;;;;;;2.40;1.45;;;;;;;;;;5028286;28;20119;-77
2024/02/03 02:13:55;;;;;;;2.58;1.38;;;;;;;;;;5028600;28;20026;-77
2024/02/03 02:16:21;;;;;;;2.10;1.42;;;;;;;;;;5015537;28;20025;-77
2024/02/03 02:18:46;;;;;;;2.28;1.40;;;;;;;;;;5009891;28;20041;-77
2024/02/03 02:21:12;;;;;;;1.98;1.38;;;;;;;;;;5029490;28;20029;-78
2024/02/03 02:23:37;;;;;;;1.85;1.50;;;;;;;;;;5012512;28;20037;-76
2024/02/03 02:26:03;;;;;;;2.42;1.45;;;;;;;;;;5029843;28;20496;-77
2024/02/03 02:28:28;;;;;;;3.00;1.50;;;;;;;;;;5012644;28;20031;-76
2024/02/03 02:30:54;;;;;;;1.90;1.27;;;;;;;;;;5010903;28;20481;-77
2024/02/03 02:33:19;;;;;;;1.85;1.33;;;;;;;;;;5018562;28;20475;-77
2024/02/03 02:35:49;;;;;;;2.15;1.30;;;;;;;;;;5010073;28;20747;-77
2024/02/03 02:38:14;;;;;;;2.20;1.50;;;;;;;;;;5029732;28;20044;-77
2024/02/03 02:40:39;;;;;;;2.30;1.42;;;;;;;;;;5029591;28;20041;-77
2024/02/03 02:43:05;;;;;;;2.92;1.30;;;;;;;;;;5012332;28;20037;-76
2024/02/03 02:45:31;;;;;;;1.98;1.23;;;;;;;;;;5035375;28;20033;-77
2024/02/03 02:47:56;;;;;;;2.05;1.38;;;;;;;;;;5025856;28;20026;-77
2024/02/03 02:50:21;;;;;;;2.05;1.40;;;;;;;;;;5031361;28;20521;-77
2024/02/03 02:52:46;;;;;;;1.92;1.15;;;;;;;;;;5033900;28;20369;-77
2024/02/03 02:55:12;;;;;;;2.42;1.50;;;;;;;;;;5011950;28;20026;-76
2024/02/03 02:57:37;;;;;;;2.15;1.40;;;;;;;;;;5026646;28;20484;-77
2024/02/03 03:00:03;;;;;;;2.05;1.55;;;;;;;;;;5032579;28;20040;-78
2024/02/03 03:02:28;;;;;;;1.83;1.10;;;;;;;;;;5032121;28;20117;-77
2024/02/03 03:04:53;;;;;;;2.28;1.38;;;;;;;;;;5034514;28;20030;-77
2024/02/03 03:07:19;;;;;;;1.90;1.25;;;;;;;;;;5013341;28;20044;-77
2024/02/03 03:09:45;;;;;;;1.92;1.20;;;;;;;;;;5032069;28;20034;-77
2024/02/03 03:12:10;;;;;;;1.88;1.25;;;;;;;;;;5033419;28;20045;-77
2024/02/03 03:14:35;;;;;;;2.20;1.30;;;;;;;;;;5032533;28;20029;-76
2024/02/03 03:17:01;;;;;;;2.45;1.40;;;;;;;;;;5031401;28;20055;-78
2024/02/03 03:19:26;;;;;;;1.88;1.30;;;;;;;;;;5032723;28;20067;-78
2024/02/03 03:21:52;;;;;;;2.08;1.27;;;;;;;;;;5033078;28;20053;-77
2024/02/03 03:24:17;;;;;;;2.10;1.15;;;;;;;;;;5031735;28;20045;-77
2024/02/03 03:26:42;;;;;;;1.63;1.20;;;;;;;;;;5028508;28;20139;-78
2024/02/03 03:29:08;;;;;;;2.08;1.30;;;;;;;;;;5014589;28;20606;-78
2024/02/03 03:31:34;;;;;;;2.15;1.30;;;;;;;;;;5015705;28;20040;-78
2024/02/03 03:33:59;;;;;;;1.85;1.15;;;;;;;;;;5032315;28;20045;-77
2024/02/03 03:36:24;;;;;;;2.10;1.45;;;;;;;;;;5032777;28;20041;-77
2024/02/03 03:38:50;;;;;;;2.10;1.10;;;;;;;;;;5028456;28;20032;-77
2024/02/03 03:41:15;;;;;;;1.85;1.20;;;;;;;;;;5014271;28;20049;-77
2024/02/03 03:43:40;;;;;;;1.63;1.23;;;;;;;;;;5032823;28;20033;-77
2024/02/03 03:46:08;;;;;;;2.28;1.48;;;;;;;;;;5010216;28;20045;-77
2024/02/03 03:48:33;;;;;;;1.50;0.93;;;;;;;;;;5031620;28;20029;-77
2024/02/03 03:50:58;;;;;;;1.92;1.30;;;;;;;;;;5031960;28;20527;-78
2024/02/03 03:53:24;;;;;;;1.80;1.13;;;;;;;;;;5011933;28;20038;-78
2024/02/03 03:55:50;;;;;;;1.88;1.17;;;;;;;;;;5032447;28;20067;-78
2024/02/03 03:58:15;;;;;;;1.88;1.10;;;;;;;;;;5032684;28;20081;-77
2024/02/03 04:00:41;;;;;;;1.83;1.40;;;;;;;;;;5033180;28;20029;-76
2024/02/03 04:03:06;;;;;;;2.58;1.13;;;;;;;;;;5028856;28;20041;-77
2024/02/03 04:05:31;;;;;;;1.85;1.13;;;;;;;;;;5031161;28;20603;-77
2024/02/03 04:07:57;;;;;;;2.00;1.10;;;;;;;;;;5028527;28;20037;-77
2024/02/03 04:10:22;;;;;;;2.08;1.23;;;;;;;;;;5032883;28;20124;-77
2024/02/03 04:12:47;;;;;;;2.35;1.20;;;;;;;;;;4997972;28;20049;-76
2024/02/03 04:15:13;;;;;;;2.45;1.10;;;;;;;;;;5014209;28;20049;-77
2024/02/03 04:17:38;;;;;;;1.77;1.00;;;;;;;;;;5032059;28;20409;-76
2024/02/03 04:20:04;;;;;;;1.90;1.10;;;;;;;;;;5030694;28;20037;-78
2024/02/03 04:22:29;;;;;;;1.42;1.15;;;;;;;;;;5031827;28;20583;-78
2024/02/03 04:24:55;;;;;;;2.10;1.20;;;;;;;;;;5014111;28;20233;-85
2024/02/03 04:27:20;;;;;;;2.05;1.38;;;;;;;;;;5013664;28;20053;-77
2024/02/03 04:29:45;;;;;;;2.13;1.40;;;;;;;;;;5030722;28;20111;-77
2024/02/03 04:32:11;;;;;;;2.13;1.15;;;;;;;;;;5014996;28;20037;-77
2024/02/03 04:34:39;;;;;;;1.77;1.10;;;;;;;;;;5032457;28;20033;-78
2024/02/03 04:37:04;;;;;;;1.60;0.93;;;;;;;;;;5012750;28;20052;-77
2024/02/03 04:39:30;;;;;;;1.23;0.90;;;;;;;;;;5022643;28;20037;-76
2024/02/03 04:41:55;;;;;;;1.98;1.10;;;;;;;;;;5014518;28;20053;-76
2024/02/03 04:44:21;;;;;;;1.67;1.10;;;;;;;;;;5012987;28;20036;-76
2024/02/03 04:46:46;;;;;;;2.20;1.27;;;;;;;;;;5030251;28;20105;-79
2024/02/03 04:49:11;;;;;;;2.00;1.00;;;;;;;;;;5013989;28;20049;-76
2024/02/03 04:51:36;;;;;;;1.70;1.00;;;;;;;;;;5032133;28;20485;-77
2024/02/03 04:54:02;;;;;;;1.45;1.00;;;;;;;;;;5032632;28;20108;-77
2024/02/03 04:56:27;;;;;;;1.83;1.00;;;;;;;;;;5027971;28;20030;-77
2024/02/03 04:58:52;;;;;;;1.42;0.80;;;;;;;;;;5012199;28;20034;-78
2024/02/03 05:01:18;;;;;;;1.85;1.00;;;;;;;;;;4985207;28;20038;-76
2024/02/03 05:03:43;;;;;;;1.38;0.90;;;;;;;;;;5016736;28;20551;-77
2024/02/03 05:06:08;;;;;;;1.60;0.90;;;;;;;;;;5029630;28;20033;-77
2024/02/03 05:08:37;;;;;;;1.48;1.00;;;;;;;;;;5011894;28;20033;-78
2024/02/03 05:11:02;;;;;;;1.40;0.82;;;;;;;;;;5008398;28;20037;-78
2024/02/03 05:13:27;;;;;;;1.90;1.13;;;;;;;;;;5026999;28;20030;-78
2024/02/03 05:15:53;;;;;;;2.10;1.23;;;;;;;;;;5031609;28;20037;-76
2024/02/03 05:18:19;;;;;;;1.90;1.08;;;;;;;;;;5016053;28;20037;-76
2024/02/03 05:20:45;;;;;;;2.08;1.00;;;;;;;;;;5015044;28;20055;-75
2024/02/03 05:23:10;;;;;;;1.25;0.70;;;;;;;;;;5030055;28;20060;-75
2024/02/03 05:25:37;;;;;;;1.33;0.88;;;;;;;;;;5015950;28;20025;-74
2024/02/03 05:28:02;;;;;;;1.80;1.00;;;;;;;;;;5024810;28;20122;-75
2024/02/03 05:30:27;;;;;;;1.55;1.00;;;;;;;;;;5002712;28;20564;-75
2024/02/03 05:32:53;;;;;;;1.65;0.90;;;;;;;;;;5023704;28;20044;-75
2024/02/03 05:35:18;;;;;;;1.65;1.00;;;;;;;;;;5022280;28;20455;-75
2024/02/03 05:37:43;;;;;;;1.75;1.00;;;;;;;;;;5007271;28;20489;-74
2024/02/03 05:40:09;;;;;;;1.67;1.00;;;;;;;;;;5009510;28;20038;-75
2024/02/03 05:42:34;;;;;;;1.60;0.85;;;;;;;;;;5045531;28;20064;-75
2024/02/03 05:45:00;;;;;;;1.75;0.90;;;;;;;;;;5041114;28;20148;-75
2024/02/03 05:47:25;;;;;;;2.00;1.00;;;;;;;;;;5037095;28;20056;-75
2024/02/03 05:49:51;;;;;;;1.42;1.08;;;;;;;;;;5019779;28;20018;-74
2024/02/03 05:52:17;;;;;;;1.27;0.82;;;;;;;;;;5019040;28;20040;-74
2024/02/03 05:54:42;;;;;;;1.30;0.90;;;;;;;;;;5013470;28;20128;-74
2024/02/03 05:57:11;;;;;;;1.60;1.00;;;;;;;;;;5026846;28;20524;-73
2024/02/03 05:59:36;;;;;;;1.27;0.82;;;;;;;;;;5028584;28;20175;-73
2024/02/03 06:02:02;;;;;;;1.95;0.90;;;;;;;;;;5029079;28;20041;-73
2024/02/03 06:04:27;;;;;;;1.77;0.88;;;;;;;;;;5011235;28;20041;-75
2024/02/03 06:06:52;;;;;;;1.60;0.85;;;;;;;;;;5034845;28;20232;-74
2024/02/03 06:09:18;;;;;;;1.50;0.80;;;;;;;;;;5015056;28;20045;-75
2024/02/03 06:11:43;;;;;;;1.30;0.80;;;;;;;;;;5019028;28;20037;-75
2024/02/03 06:14:09;;;;;;;2.30;0.90;;;;;;;;;;5028048;28;20044;-75
2024/02/03 06:16:35;;;;;;;2.00;1.00;;;;;;;;;;5022678;28;20030;-76
2024/02/03 06:19:00;;;;;;;1.73;0.80;;;;;;;;;;5024497;28;20037;-77
2024/02/03 06:21:27;;;;;;;1.38;0.90;;;;;;;;;;5028609;28;20060;-78
2024/02/03 06:23:54;;;;;;;1.27;0.70;;;;;;;;;;5038411;28;20456;-75
2024/02/03 06:26:20;;;;;;;1.60;0.90;;;;;;;;;;5029816;28;20036;-77
2024/02/03 06:28:45;;;;;;;1.40;0.80;;;;;;;;;;4998779;28;20038;-77
2024/02/03 06:31:26;;;;;;;2.55;1.00;;;;;;;;;;5027649;28;20061;-78
2024/02/03 06:33:51;;;;;;;1.80;0.80;;;;;;;;;;4998797;28;20152;-80
2024/02/03 06:36:16;;;;;;;1.42;0.70;;;;;;;;;;5034205;28;20535;-76
2024/02/03 06:38:42;;;;;;;2.05;1.10;;;;;;;;;;5035167;28;20041;-78
2024/02/03 06:41:10;;;;;;;1.55;0.80;;;;;;;;;;5030012;28;20526;-80
2024/02/03 06:43:40;;;;;;;1.70;0.93;;;;;;;;;;4997281;28;20109;-80
2024/02/03 06:46:05;;;;;;;1.60;0.90;;;;;;;;;;5020028;28;20053;-78
2024/02/03 06:48:30;;;;;;;1.65;0.80;;;;;;;;;;5033579;28;20037;-78
2024/02/03 06:50:56;;;;;;;1.77;1.00;;;;;;;;;;5050895;28;20093;-82
2024/02/03 06:53:21;;;;;;;2.10;0.80;;;;;;;;;;5035272;28;20067;-76
2024/02/03 06:55:47;;;;;;;1.40;0.80;;;;;;;;;;5044076;28;20030;-77
2024/02/03 06:58:13;;;;;;;1.70;0.65;;;;;;;;;;5031278;28;20044;-75
2024/02/03 07:00:38;;;;;;;1.30;0.80;;;;;;;;;;5047538;28;20021;-81
2024/02/03 07:03:03;;;;;;;1.13;0.80;;;;;;;;;;5023932;28;20041;-76
2024/02/03 07:05:29;;;;;;;1.80;0.90;;;;;;;;;;5032154;28;20025;-78
2024/02/03 07:07:54;;;;;;;1.40;0.80;;;;;;;;;;5028685;28;20574;-77
2024/02/03 07:10:20;;;;;;;1.73;0.73;;;;;;;;;;5028317;28;20064;-78
2024/02/03 07:12:45;;;;;;;1.45;0.90;;;;;;;;;;5012804;28;20109;-76
2024/02/03 07:15:10;;;;;;;1.48;0.70;;;;;;;;;;5012661;28;20509;-78
2024/02/03 07:17:36;;;;;;;1.60;0.70;;;;;;;;;;5034652;28;20445;-77
2024/02/03 07:20:02;;;;;;;1.40;0.68;;;;;;;;;;5012164;28;20139;-78
2024/02/03 07:22:28;;;;;;;1.80;0.93;;;;;;;;;;5029820;28;20188;-77
2024/02/03 07:24:53;;;;;;;1.60;0.80;;;;;;;;;;5030509;28;20087;-78
2024/02/03 07:27:21;;;;;;;1.50;0.82;;;;;;;;;;5015027;28;20033;-78
2024/02/03 07:29:47;;;;;;;1.40;0.63;;;;;;;;;;5026479;28;20040;-76
2024/02/03 07:32:12;;;;;;;1.95;0.77;;;;;;;;;;5035089;28;20045;-77
2024/02/03 07:34:43;;;;;;;1.00;0.52;;;;;;;;;;5034882;28;20029;-79
2024/02/03 07:37:09;;;;;;;1.88;1.00;;;;;;;;;;5035645;28;20048;-77
2024/02/03 07:39:35;;;;;;;2.05;0.88;;;;;;;;;;5015819;28;20029;-78
2024/02/03 07:42:01;;;;;;;1.77;0.95;;;;;;;;;;5024466;28;20107;-77
2024/02/03 07:44:34;;;;;;;2.13;0.80;;;;;;;;;;5018958;28;20079;-83
2024/02/03 07:46:59;;;;;;;1.27;0.73;;;;;;;;;;5032860;28;20048;-86
2024/02/03 07:49:24;;;;;;;1.27;0.60;;;;;;;;;;5031500;28;20041;-80
2024/02/03 07:51:50;;;;;;;1.77;0.80;;;;;;;;;;4998075;28;20119;-80
2024/02/03 07:54:15;;;;;;;1.33;0.88;;;;;;;;;;5014695;28;20108;-78
2024/02/03 07:56:40;;;;;;;2.08;0.80;;;;;;;;;;5015737;28;20518;-80
2024/02/03 07:59:06;;;;;;;1.42;0.60;;;;;;;;;;4998142;28;20037;-77
2024/02/03 08:01:31;;;;;;;1.88;0.80;;;;;;;;;;5014230;28;20121;-79
2024/02/03 08:03:57;;;;;;;4.93;0.80;;;;;;;;;;5016949;28;20480;-76
2024/02/03 08:06:22;;;;;;;1.42;0.80;;;;;;;;;;5030779;28;20079;-78
2024/02/03 08:08:47;;;;;;;4.65;0.85;;;;;;;;;;5026740;28;20481;-78
2024/02/03 08:11:12;;;;;;;2.38;0.80;;;;;;;;;;5033368;28;20063;-78
2024/02/03 08:13:38;;;;;;;2.50;0.90;;;;;;;;;;5035495;28;20385;-81
2024/02/03 08:16:03;;;;;;;3.08;0.70;;;;;;;;;;5035143;28;20044;-79
2024/02/03 08:18:32;;;;;;;1.45;0.73;;;;;;;;;;5017417;28;20084;-80
2024/02/03 08:20:58;;;;;;;1.73;0.60;;;;;;;;;;5000646;28;20106;-79
2024/02/03 08:23:23;;;;;;;1.83;1.02;;;;;;;;;;4998914;28;20057;-79
2024/02/03 08:25:48;;;;;;;1.25;0.70;;;;;;;;;;5013209;28;20029;-77
2024/02/03 08:28:14;;;;;;;1.10;0.70;;;;;;;;;;5032683;28;20033;-80
2024/02/03 08:30:41;;;;;;;1.27;0.70;;;;;;;;;;5018228;28;20038;-79
2024/02/03 08:33:07;;;;;;;1.55;0.80;;;;;;;;;;5002037;28;20093;-78
2024/02/03 08:35:33;;;;;;;1.83;0.70;;;;;;;;;;5007632;28;20045;-79
2024/02/03 08:37:58;;;;;;;1.70;0.57;;;;;;;;;;5016093;28;20025;-77
2024/02/03 08:40:23;;;;;;;1.50;0.80;;;;;;;;;;5032094;28;20095;-77
2024/02/03 08:42:49;;;;;;;2.65;0.82;;;;;;;;;;5011429;28;20033;-76
2024/02/03 08:45:14;;;;;;;0.95;0.65;;;;;;;;;;5033027;28;20029;-77
2024/02/03 08:47:39;;;;;;;2.47;0.70;;;;;;;;;;5032486;28;20029;-77
2024/02/03 08:50:06;;;;;;;1.80;0.70;;;;;;;;;;5031054;28;20033;-77
2024/02/03 08:52:31;;;;;;;2.55;0.70;;;;;;;;;;5034243;28;20085;-77
2024/02/03 08:54:57;;;;;;;1.70;0.80;;;;;;;;;;5036117;28;20111;-78
2024/02/03 08:57:22;;;;;;;1.70;0.80;;;;;;;;;;5018514;28;20029;-75
2024/02/03 08:59:50;;;;;;;1.95;0.50;;;;;;;;;;5035322;28;20029;-80
2024/02/03 09:02:16;;;;;;;1.42;0.63;;;;;;;;;;5044351;28;20082;-78
2024/02/03 09:04:41;;;;;;;1.95;0.70;;;;;;;;;;5046533;28;20026;-77
2024/02/03 09:07:06;;;;;;;1.98;0.68;;;;;;;;;;5036761;28;20028;-77
2024/02/03 09:09:32;;;;;;;3.10;0.80;;;;;;;;;;5035584;28;20049;-79
2024/02/03 09:11:57;;;;;;;1.73;0.80;;;;;;;;;;4994029;28;20045;-78
2024/02/03 09:14:22;;;;;;;3.35;0.80;;;;;;;;;;5008383;28;20073;-76
2024/02/03 09:16:48;;;;;;;1.48;0.73;;;;;;;;;;5039655;28;20024;-80
2024/02/03 09:19:13;;;;;;;1.73;0.60;;;;;;;;;;5037437;28;20573;-79
2024/02/03 09:21:40;;;;;;;1.33;0.52;;;;;;;;;;5000699;28;20136;-79
2024/02/03 09:24:07;;;;;;;1.90;0.88;;;;;;;;;;5019294;28;20094;-79
2024/02/03 09:26:32;;;;;;;2.03;0.73;;;;;;;;;;4995499;28;20124;-79
2024/02/03 09:28:58;;;;;;;1.40;0.70;;;;;;;;;;5002576;28;20061;-76
2024/02/03 09:31:23;;;;;;;1.23;0.60;;;;;;;;;;5015105;28;20512;-75
2024/02/03 09:33:49;;;;;;;2.00;0.80;;;;;;;;;;5016978;28;20026;-77
2024/02/03 09:36:15;;;;;;;2.35;0.90;;;;;;;;;;5036850;28;20583;-76
2024/02/03 09:38:43;;;;;;;1.23;0.70;;;;;;;;;;5014363;28;20021;-77
2024/02/03 09:41:08;;;;;;;3.28;0.70;;;;;;;;;;5037311;28;20047;-74
2024/02/03 09:43:34;;;;;;;1.73;1.15;;;;;;;;;;5040922;28;20030;-77
2024/02/03 09:46:00;;;;;;;3.65;1.40;;;;;;;;;;5019700;28;20068;-79
2024/02/03 09:48:26;;;;;;;3.97;1.25;;;;;;;;;;5016266;28;20462;-75
2024/02/03 09:50:51;;;;;;;2.55;1.38;;;;;;;;;;5032816;28;20048;-77
2024/02/03 09:53:17;;;;;;;2.35;1.35;;;;;;;;;;5015236;28;20409;-77
2024/02/03 09:55:43;;;;;;;2.70;1.10;;;;;;;;;;5029728;28;20037;-73
2024/02/03 09:58:09;;;;;;;2.67;1.38;;;;;;;;;;5036116;28;20039;-82
2024/02/03 10:00:35;;;;;;;10.10;1.50;;;;;;;;;;5020171;28;20113;-76
2024/02/03 10:03:01;;;;;;;3.47;1.23;;;;;;;;;;5030855;28;20139;-74
2024/02/03 10:05:30;;;;;;;4.25;1.50;;;;;;;;;;5033435;28;20087;-75
2024/02/03 10:08:02;;;;;;;4.22;1.52;;;;;;;;;;5016930;28;20034;-75
2024/02/03 10:10:27;;;;;;;2.85;1.38;;;;;;;;;;5012284;28;20042;-77
2024/02/03 10:13:06;;;;;;;3.05;0.90;;;;;;;;;;5027194;28;20026;-76
2024/02/03 10:15:31;;;;;;;3.38;1.20;;;;;;;;;;5012432;28;20041;-75
2024/02/03 10:17:58;;;;;;;3.47;1.30;;;;;;;;;;5030339;28;20037;-75
2024/02/03 10:20:23;;;;;;;4.30;1.45;;;;;;;;;;5032047;28;20106;-76
2024/02/03 10:22:48;;;;;;;4.20;1.20;;;;;;;;;;5013877;28;20038;-78
2024/02/03 10:25:17;;;;;;;2.20;0.93;;;;;;;;;;5030168;28;20147;-75
2024/02/03 10:27:42;;;;;;;3.00;1.23;;;;;;;;;;5035283;28;20489;-77
2024/02/03 10:30:08;;;;;;;2.97;1.35;;;;;;;;;;5023396;28;20040;-75
2024/02/03 10:32:34;;;;;;;2.13;1.10;;;;;;;;;;5018473;28;20033;-73
2024/02/03 10:34:59;;;;;;;2.38;1.10;;;;;;;;;;5041770;28;20056;-78
2024/02/03 10:37:25;;;;;;;3.35;1.20;;;;;;;;;;5019723;28;20053;-75
2024/02/03 10:39:50;;;;;;;3.25;1.08;;;;;;;;;;5016712;28;20417;-75
2024/02/03 10:42:20;;;;;;;1.80;0.95;;;;;;;;;;5033449;28;20057;-75
2024/02/03 10:44:47;;;;;;;2.30;1.13;;;;;;;;;;5004835;28;20111;-76
2024/02/03 10:47:12;;;;;;;3.00;1.30;;;;;;;;;;5012102;28;20043;-79
2024/02/03 10:49:37;;;;;;;3.15;1.17;;;;;;;;;;4997925;28;20088;-78
2024/02/03 10:52:04;;;;;;;2.35;1.30;;;;;;;;;;5016003;28;20049;-75
2024/02/03 10:54:50;;;;;;;2.25;1.00;;;;;;;;;;5012265;28;20508;-76
2024/02/03 10:57:17;;;;;;;3.15;1.15;;;;;;;;;;5004799;28;20038;-75
2024/02/03 10:59:43;;;;;;;2.47;1.20;;;;;;;;;;5005601;28;20036;-78
2024/02/03 11:02:18;;;;;;;2.13;1.10;;;;;;;;;;5011960;28;20104;-76
2024/02/03 11:04:46;;;;;;;1.65;0.90;;;;;;;;;;5017144;28;20275;-77
2024/02/03 11:07:20;;;;;;;2.65;1.02;;;;;;;;;;5018168;28;20512;-78
2024/02/03 11:09:49;;;;;;;1.90;0.90;;;;;;;;;;5015469;28;20068;-76
2024/02/03 11:12:15;;;;;;;3.05;1.10;;;;;;;;;;5031022;28;20028;-76
2024/02/03 11:14:42;;;;;;;2.30;1.20;;;;;;;;;;5031274;28;20512;-77
2024/02/03 11:17:07;;;;;;;2.83;0.90;;;;;;;;;;5017688;28;20461;-75
2024/02/03 11:19:33;;;;;;;1.80;0.90;;;;;;;;;;5017624;28;20034;-74
2024/02/03 11:21:59;;;;;;;2.13;1.00;;;;;;;;;;5016717;28;20046;-76
2024/02/03 11:24:24;;;;;;;2.20;1.10;;;;;;;;;;4995853;28;20045;-78
2024/02/03 11:26:57;;;;;;;2.10;1.17;;;;;;;;;;5017419;28;20030;-75
2024/02/03 11:29:22;;;;;;;2.50;1.00;;;;;;;;;;5015800;28;20044;-74
2024/02/03 11:31:47;;;;;;;1.83;1.10;;;;;;;;;;5022936;28;20037;-76
2024/02/03 11:34:25;;;;;;;1.83;0.98;;;;;;;;;;5003570;28;20042;-75
2024/02/03 11:36:50;;;;;;;2.38;1.00;;;;;;;;;;5015549;28;20103;-74
2024/02/03 11:39:25;;;;;;;1.75;0.95;;;;;;;;;;5000532;28;20021;-76
2024/02/03 11:41:52;;;;;;;1.58;0.80;;;;;;;;;;5021893;28;20115;-77
2024/02/03 11:44:19;;;;;;;2.78;1.00;;;;;;;;;;5017812;28;20411;-75
2024/02/03 11:46:44;;;;;;;3.00;1.08;;;;;;;;;;5014193;28;20498;-76
2024/02/03 11:49:10;;;;;;;3.17;0.93;;;;;;;;;;5017980;28;20034;-86
2024/02/03 11:51:37;;;;;;;3.22;1.10;;;;;;;;;;5016399;28;20040;-76
2024/02/03 11:54:04;;;;;;;2.15;0.90;;;;;;;;;;5028451;28;20041;-76
2024/02/03 11:56:31;;;;;;;2.83;1.20;;;;;;;;;;4994225;28;20034;-80
2024/02/03 11:58:57;;;;;;;3.20;1.05;;;;;;;;;;5033879;28;20045;-75
2024/02/03 12:01:22;;;;;;;2.03;0.80;;;;;;;;;;5015580;28;20618;-77
2024/02/03 12:03:49;;;;;;;4.38;0.80;;;;;;;;;;5030850;28;20089;-79
2024/02/03 12:06:14;;;;;;;2.90;0.82;;;;;;;;;;5021468;28;20505;-78
2024/02/03 12:08:39;;;;;;;2.17;0.70;;;;;;;;;;5034732;28;20026;-77
2024/02/03 12:11:05;;;;;;;1.98;1.10;;;;;;;;;;5014282;28;20042;-76
2024/02/03 12:13:37;;;;;;;3.13;1.42;;;;;;;;;;5019885;28;20452;-77
2024/02/03 12:16:03;;;;;;;2.22;1.00;;;;;;;;;;5010784;28;20049;-77
2024/02/03 12:18:28;;;;;;;2.30;1.08;;;;;;;;;;5029026;28;20038;-79
2024/02/03 12:20:54;;;;;;;2.00;1.00;;;;;;;;;;5022052;28;20042;-75
2024/02/03 12:23:19;;;;;;;3.47;0.98;;;;;;;;;;5021639;28;20045;-77
2024/02/03 12:25:44;;;;;;;1.90;1.00;;;;;;;;;;5036805;28;20097;-75
2024/02/03 12:28:11;;;;;;;4.22;0.90;;;;;;;;;;5050375;28;20037;-76
2024/02/03 12:30:36;;;;;;;1.85;1.10;;;;;;;;;;5033413;28;20033;-75
2024/02/03 12:33:05;;;;;;;2.03;0.80;;;;;;;;;;5037781;28;20087;-74
2024/02/03 12:35:32;;;;;;;2.05;1.00;;;;;;;;;;5016351;28;20037;-75
2024/02/03 12:37:57;;;;;;;1.92;0.70;;;;;;;;;;5017662;28;20033;-74
2024/02/03 12:40:22;;;;;;;2.90;0.98;;;;;;;;;;5017864;28;20034;-74
2024/02/03 12:42:47;;;;;;;3.08;1.20;;;;;;;;;;5012410;28;20041;-74
2024/02/03 12:45:20;;;;;;;2.25;0.82;;;;;;;;;;5016927;28;20049;-77
2024/02/03 12:47:45;;;;;;;2.00;0.90;;;;;;;;;;5030181;28;20030;-75
2024/02/03 12:50:11;;;;;;;2.55;1.08;;;;;;;;;;5017298;28;20053;-76
2024/02/03 12:52:36;;;;;;;2.10;1.00;;;;;;;;;;5044126;28;20029;-76
2024/02/03 12:55:01;;;;;;;1.67;0.80;;;;;;;;;;5050051;28;20045;-76
2024/02/03 12:57:31;;;;;;;2.80;0.90;;;;;;;;;;5036917;28;20018;-80
2024/02/03 12:59:56;;;;;;;2.42;1.10;;;;;;;;;;5051379;28;20029;-76
2024/02/03 13:02:21;;;;;;;1.95;0.80;;;;;;;;;;5013702;28;20175;-76
2024/02/03 13:04:47;;;;;;;1.70;1.00;;;;;;;;;;5024219;28;20489;-75
2024/02/03 13:07:13;;;;;;;3.88;1.05;;;;;;;;;;5005041;28;20044;-78
2024/02/03 13:09:40;;;;;;;1.92;0.85;;;;;;;;;;5032186;28;20033;-75
2024/02/03 13:12:05;;;;;;;1.80;0.85;;;;;;;;;;5019427;28;20049;-76
2024/02/03 13:14:31;;;;;;;2.47;1.10;;;;;;;;;;5040258;28;20045;-76
2024/02/03 13:16:56;;;;;;;2.58;1.10;;;;;;;;;;5031891;28;20025;-76
2024/02/03 13:19:21;;;;;;;2.45;1.00;;;;;;;;;;5017961;28;20030;-76
2024/02/03 13:21:47;;;;;;;3.05;0.85;;;;;;;;;;5040017;28;20053;-78
2024/02/03 13:24:12;;;;;;;3.05;0.93;;;;;;;;;;5030371;28;20505;-76
2024/02/03 13:26:37;;;;;;;2.35;1.00;;;;;;;;;;5050752;28;20033;-83
2024/02/03 13:29:03;;;;;;;2.45;1.00;;;;;;;;;;5010985;28;20416;-79
2024/02/03 13:31:28;;;;;;;2.53;0.80;;;;;;;;;;5018359;28;20037;-79
2024/02/03 13:33:53;;;;;;;2.47;1.30;;;;;;;;;;5013499;28;20040;-81
2024/02/03 13:36:19;;;;;;;2.30;1.20;;;;;;;;;;5014163;28;20037;-77
2024/02/03 13:38:45;;;;;;;2.63;1.20;;;;;;;;;;5013692;28;20030;-78
2024/02/03 13:41:10;;;;;;;2.35;1.00;;;;;;;;;;5009719;28;20037;-75
2024/02/03 13:43:35;;;;;;;5.05;0.98;;;;;;;;;;5032350;28;20033;-75
2024/02/03 13:46:01;;;;;;;2.67;1.00;;;;;;;;;;5010766;28;20420;-75
2024/02/03 13:48:26;;;;;;;2.47;1.05;;;;;;;;;;5021852;28;20148;-77
2024/02/03 13:50:52;;;;;;;1.38;0.70;;;;;;;;;;5027785;28;20032;-74
2024/02/03 13:53:17;;;;;;;2.95;1.00;;;;;;;;;;5029964;28;20693;-76
2024/02/03 13:55:42;;;;;;;2.47;1.20;;;;;;;;;;5011282;28;20088;-76
2024/02/03 13:58:08;;;;;;;1.67;0.80;;;;;;;;;;4997211;28;20034;-77
2024/02/03 14:00:34;;;;;;;2.40;1.25;;;;;;;;;;5007582;28;20033;-78
2024/02/03 14:03:00;;;;;;;3.83;1.20;;;;;;;;;;5021324;28;20049;-76
2024/02/03 14:05:25;;;;;;;3.65;1.10;;;;;;;;;;5013167;28;20637;-80
2024/02/03 14:07:52;;;;;;;3.25;1.10;;;;;;;;;;5009991;28;20037;-79
2024/02/03 14:10:18;;;;;;;2.63;1.10;;;;;;;;;;5011274;28;20037;-79
2024/02/03 14:12:44;;;;;;;2.83;1.17;;;;;;;;;;5029880;28;20483;-78
2024/02/03 14:15:10;;;;;;;3.30;1.00;;;;;;;;;;5023039;28;20136;-80
2024/02/03 14:17:35;;;;;;;2.78;1.20;;;;;;;;;;5012383;28;20145;-79
2024/02/03 14:20:02;;;;;;;3.22;1.42;;;;;;;;;;5031794;28;20065;-76
2024/02/03 14:22:27;;;;;;;3.38;1.40;;;;;;;;;;5012502;28;20680;-75
2024/02/03 14:24:52;;;;;;;3.58;1.52;;;;;;;;;;5030041;28;20033;-76
2024/02/03 14:27:18;;;;;;;3.20;1.55;;;;;;;;;;5027999;28;20030;-77
2024/02/03 14:29:43;;;;;;;3.85;1.40;;;;;;;;;;5031510;28;20033;-77
2024/02/03 14:32:08;;;;;;;3.92;1.67;;;;;;;;;;5011835;28;20124;-78
2024/02/03 14:34:34;;;;;;;5.75;1.77;;;;;;;;;;4986855;28;20030;-79